createdAt,value
2022-08-22T00:00:49.151Z,77.97
2022-08-22T00:01:49.209Z,77.97
2022-08-22T00:03:09.594Z,78.14
2022-08-22T00:03:15.643Z,76.25
2022-08-22T00:03:16.249Z,77.37
2022-08-22T00:03:50.159Z,78.17
2022-08-22T00:04:49.142Z,77.87
2022-08-22T00:05:49.130Z,78.17
2022-08-22T00:06:49.116Z,77.57
2022-08-22T00:07:49.078Z,78.17
2022-08-22T00:08:49.117Z,78.47
2022-08-22T00:09:49.089Z,77.47
2022-08-22T00:10:49.191Z,77.47
2022-08-22T00:11:49.039Z,77.27
2022-08-22T00:12:49.057Z,77.97
2022-08-22T00:13:49.068Z,78.38
2022-08-22T00:14:50.050Z,77.77
2022-08-22T00:15:49.027Z,77.77
2022-08-22T00:16:48.997Z,78.67
2022-08-22T00:17:48.980Z,78.07
2022-08-22T00:18:49.020Z,77.87
2022-08-22T00:19:48.960Z,77.27
2022-08-22T00:20:48.951Z,76.97
2022-08-22T00:21:49.074Z,77.83
2022-08-22T00:22:48.930Z,77.53
2022-08-22T00:23:48.956Z,77.03
2022-08-22T00:24:48.908Z,76.83
2022-08-22T00:25:48.888Z,76.93
2022-08-22T00:26:48.883Z,77.33
2022-08-22T00:27:48.895Z,77.83
2022-08-22T00:28:48.906Z,78.67
2022-08-22T00:29:48.852Z,78.38
2022-08-22T00:30:48.891Z,78.38
2022-08-22T00:31:48.852Z,78.17
2022-08-22T00:32:48.885Z,78.61
2022-08-22T00:33:48.841Z,79.18
2022-08-22T00:34:48.821Z,78.07
2022-08-22T00:35:48.806Z,79.42
2022-08-22T00:36:48.883Z,79.82
2022-08-22T00:37:48.796Z,78.96
2022-08-22T00:38:48.762Z,80.12
2022-08-22T00:39:48.761Z,79.96
2022-08-22T00:40:48.761Z,79.76
2022-08-22T00:41:48.751Z,80.26
2022-08-22T00:42:48.733Z,80.97
2022-08-22T00:43:48.718Z,81.41
2022-08-22T00:44:48.860Z,81.91
2022-08-22T00:45:48.720Z,82.92
2022-08-22T00:46:48.691Z,82.92
2022-08-22T00:47:48.712Z,83.76
2022-08-22T00:48:48.673Z,83.10
2022-08-22T00:49:48.649Z,83.10
2022-08-22T00:50:48.668Z,83.74
2022-08-22T00:51:48.619Z,82.90
2022-08-22T00:52:48.629Z,82.79
2022-08-22T00:53:48.603Z,82.90
2022-08-22T00:54:48.674Z,84.21
2022-08-22T00:55:48.576Z,83.70
2022-08-22T00:56:48.564Z,84.91
2022-08-22T00:57:48.601Z,84.85
2022-08-22T00:58:48.570Z,85.76
2022-08-22T00:59:48.531Z,85.36
2022-08-22T01:00:48.614Z,87.58
2022-08-22T01:01:48.531Z,87.21
2022-08-22T01:02:52.381Z,87.32
2022-08-22T01:03:48.524Z,86.00
2022-08-22T01:04:48.485Z,88.06
2022-08-22T01:05:48.487Z,87.26
2022-08-22T01:06:48.485Z,87.36
2022-08-22T01:07:48.498Z,86.69
2022-08-22T01:08:48.477Z,87.40
2022-08-22T01:09:48.431Z,87.90
2022-08-22T01:10:48.418Z,87.40
2022-08-22T01:11:48.417Z,87.70
2022-08-22T01:12:48.428Z,88.45
2022-08-22T01:13:48.402Z,89.97
2022-08-22T01:14:48.437Z,90.07
2022-08-22T01:15:48.395Z,90.47
2022-08-22T01:16:48.377Z,90.52
2022-08-22T01:17:48.356Z,90.52
2022-08-22T01:18:48.339Z,90.41
2022-08-22T01:19:48.330Z,90.56
2022-08-22T01:20:48.354Z,90.76
2022-08-22T01:21:48.315Z,91.77
2022-08-22T01:22:48.301Z,92.22
2022-08-22T01:23:48.302Z,92.93
2022-08-22T01:24:48.296Z,93.23
2022-08-22T01:25:48.263Z,93.03
2022-08-22T01:26:48.288Z,93.13
2022-08-22T01:27:48.350Z,92.97
2022-08-22T01:28:48.233Z,93.74
2022-08-22T01:29:48.224Z,94.19
2022-08-22T01:30:48.209Z,93.48
2022-08-22T01:31:48.225Z,94.64
2022-08-22T01:32:48.217Z,94.54
2022-08-22T01:33:48.179Z,94.94
2022-08-22T01:34:48.252Z,95.35
2022-08-22T01:35:48.147Z,95.59
2022-08-22T01:36:48.143Z,95.35
2022-08-22T01:37:48.316Z,95.50
2022-08-22T01:38:48.139Z,95.59
2022-08-22T01:39:48.175Z,95.50
2022-08-22T01:40:53.713Z,96.20
2022-08-22T01:41:49.111Z,95.39
2022-08-22T01:42:48.125Z,95.19
2022-08-22T01:44:00.484Z,94.78
2022-08-22T01:44:49.079Z,94.43
2022-08-22T01:45:48.047Z,94.03
2022-08-22T01:46:48.031Z,92.57
2022-08-22T01:47:48.105Z,91.82
2022-08-22T01:48:48.023Z,91.47
2022-08-22T01:49:48.063Z,89.95
2022-08-22T01:50:47.995Z,89.20
2022-08-22T01:51:48.040Z,88.25
2022-08-22T01:52:48.062Z,88.75
2022-08-22T01:53:47.964Z,88.10
2022-08-22T01:54:47.945Z,88.96
2022-08-22T01:55:47.959Z,87.74
2022-08-22T01:56:47.924Z,87.50
2022-08-22T01:57:47.999Z,87.40
2022-08-22T01:58:47.940Z,85.94
2022-08-22T01:59:47.921Z,85.44
2022-08-22T02:00:47.959Z,86.00
2022-08-22T02:01:47.875Z,85.19
2022-08-22T02:02:47.877Z,85.40
2022-08-22T02:03:47.906Z,85.10
2022-08-22T02:04:47.830Z,85.19
2022-08-22T02:05:47.824Z,84.89
2022-08-22T02:06:47.835Z,84.75
2022-08-22T02:07:47.859Z,84.79
2022-08-22T02:08:47.832Z,85.60
2022-08-22T02:09:47.822Z,84.19
2022-08-22T02:10:47.784Z,84.29
2022-08-22T02:11:47.765Z,84.25
2022-08-22T02:12:47.781Z,83.64
2022-08-22T02:13:47.756Z,83.74
2022-08-22T02:14:47.726Z,83.74
2022-08-22T02:15:47.757Z,83.74
2022-08-22T02:16:47.713Z,83.54
2022-08-22T02:17:47.743Z,83.54
2022-08-22T02:18:47.720Z,83.34
2022-08-22T02:19:47.671Z,83.64
2022-08-22T02:20:47.703Z,83.84
2022-08-22T02:21:47.664Z,83.74
2022-08-22T02:22:47.692Z,83.84
2022-08-22T02:23:47.643Z,83.24
2022-08-22T02:24:47.633Z,83.95
2022-08-22T02:25:47.603Z,83.54
2022-08-22T02:26:47.642Z,83.54
2022-08-22T02:27:47.631Z,84.15
2022-08-22T02:28:57.127Z,83.74
2022-08-22T02:29:48.567Z,84.05
2022-08-22T02:30:47.562Z,83.78
2022-08-22T02:31:47.566Z,83.98
2022-08-22T02:32:47.558Z,83.88
2022-08-22T02:33:47.541Z,84.95
2022-08-22T02:34:47.511Z,84.79
2022-08-22T02:35:47.515Z,84.15
2022-08-22T02:36:47.551Z,83.95
2022-08-22T02:37:47.506Z,84.79
2022-08-22T02:38:47.466Z,84.99
2022-08-22T02:39:47.528Z,84.99
2022-08-22T02:40:47.480Z,84.99
2022-08-22T02:41:47.473Z,84.39
2022-08-22T02:42:47.459Z,84.29
2022-08-22T02:43:47.539Z,84.49
2022-08-22T02:44:47.400Z,84.59
2022-08-22T02:45:47.430Z,84.09
2022-08-22T02:46:47.431Z,83.88
2022-08-22T02:47:47.393Z,84.59
2022-08-22T02:48:47.349Z,84.99
2022-08-22T02:49:47.353Z,85.54
2022-08-22T02:50:47.342Z,86.25
2022-08-22T02:51:47.328Z,86.55
2022-08-22T02:52:47.399Z,86.59
2022-08-22T02:53:47.527Z,86.59
2022-08-22T02:54:47.283Z,88.01
2022-08-22T02:55:47.284Z,87.60
2022-08-22T02:56:47.267Z,87.95
2022-08-22T02:57:47.276Z,87.95
2022-08-22T02:58:47.318Z,87.84
2022-08-22T02:59:47.240Z,87.48
2022-08-22T03:00:47.336Z,87.99
2022-08-22T03:01:47.239Z,88.04
2022-08-22T03:02:47.240Z,87.54
2022-08-22T03:03:47.229Z,87.34
2022-08-22T03:04:47.194Z,86.83
2022-08-22T03:05:47.173Z,86.53
2022-08-22T03:06:47.236Z,86.13
2022-08-22T03:07:47.163Z,86.29
2022-08-22T03:08:47.587Z,85.78
2022-08-22T03:09:47.235Z,85.17
2022-08-22T03:10:47.186Z,85.14
2022-08-22T03:11:47.113Z,85.34
2022-08-22T03:12:47.106Z,85.34
2022-08-22T03:13:47.113Z,85.84
2022-08-22T03:14:47.087Z,85.28
2022-08-22T03:15:49.519Z,85.38
2022-08-22T03:16:47.058Z,85.28
2022-08-22T03:17:47.072Z,85.48
2022-08-22T03:18:47.046Z,86.29
2022-08-22T03:19:47.046Z,87.34
2022-08-22T03:20:47.090Z,87.74
2022-08-22T03:21:47.004Z,87.84
2022-08-22T03:22:47.061Z,88.39
2022-08-22T03:23:46.979Z,88.64
2022-08-22T03:24:46.971Z,89.00
2022-08-22T03:25:46.998Z,88.64
2022-08-22T03:26:46.960Z,89.45
2022-08-22T03:27:49.945Z,90.05
2022-08-22T03:28:59.165Z,89.99
2022-08-22T03:29:47.952Z,90.20
2022-08-22T03:30:46.903Z,91.35
2022-08-22T03:31:46.888Z,92.36
2022-08-22T03:32:46.892Z,93.32
2022-08-22T03:33:46.904Z,93.02
2022-08-22T03:34:46.933Z,94.58
2022-08-22T03:35:46.991Z,94.78
2022-08-22T03:36:46.875Z,94.38
2022-08-22T03:37:46.844Z,94.58
2022-08-22T03:38:46.861Z,94.07
2022-08-22T03:39:46.887Z,94.22
2022-08-22T03:40:46.792Z,95.19
2022-08-22T03:41:46.799Z,92.51
2022-08-22T03:42:46.811Z,92.31
2022-08-22T03:43:46.782Z,92.51
2022-08-22T03:44:46.826Z,91.35
2022-08-22T03:45:46.774Z,90.80
2022-08-22T03:46:46.837Z,89.89
2022-08-22T03:47:46.764Z,90.20
2022-08-22T03:48:46.718Z,89.04
2022-08-22T03:49:46.724Z,88.94
2022-08-22T03:50:46.705Z,88.33
2022-08-22T03:51:46.673Z,88.70
2022-08-22T03:52:46.718Z,89.45
2022-08-22T03:53:46.693Z,88.43
2022-08-22T03:54:46.663Z,87.62
2022-08-22T03:55:46.705Z,87.99
2022-08-22T03:56:46.748Z,88.09
2022-08-22T03:57:46.650Z,88.09
2022-08-22T03:58:46.617Z,88.09
2022-08-22T03:59:46.586Z,88.59
2022-08-22T04:00:46.635Z,87.68
2022-08-22T04:01:46.643Z,87.99
2022-08-22T04:02:46.647Z,87.79
2022-08-22T04:03:46.576Z,88.79
2022-08-22T04:04:46.539Z,87.88
2022-08-22T04:05:46.577Z,87.79
2022-08-22T04:06:48.316Z,87.79
2022-08-22T04:07:46.561Z,87.79
2022-08-22T04:08:46.507Z,87.54
2022-08-22T04:09:47.219Z,87.58
2022-08-22T04:10:46.507Z,87.24
2022-08-22T04:11:46.545Z,87.54
2022-08-22T04:12:46.617Z,86.87
2022-08-22T04:13:46.489Z,86.93
2022-08-22T04:14:46.456Z,87.44
2022-08-22T04:15:46.646Z,87.38
2022-08-22T04:16:46.698Z,87.48
2022-08-22T04:17:46.606Z,87.58
2022-08-22T04:18:46.454Z,88.79
2022-08-22T04:19:46.433Z,88.23
2022-08-22T04:20:46.390Z,88.02
2022-08-22T04:21:46.456Z,89.04
2022-08-22T04:22:46.385Z,88.53
2022-08-22T04:23:46.368Z,88.53
2022-08-22T04:24:48.938Z,88.74
2022-08-22T04:25:47.318Z,88.74
2022-08-22T04:26:46.307Z,88.74
2022-08-22T04:27:46.335Z,89.04
2022-08-22T04:28:46.433Z,89.04
2022-08-22T04:29:46.293Z,89.54
2022-08-22T04:30:46.526Z,88.43
2022-08-22T04:31:46.295Z,89.04
2022-08-22T04:32:46.278Z,89.14
2022-08-22T04:33:46.309Z,88.43
2022-08-22T04:34:46.244Z,89.04
2022-08-22T04:35:46.239Z,90.11
2022-08-22T04:36:46.236Z,90.05
2022-08-22T04:37:46.252Z,90.05
2022-08-22T04:38:46.185Z,90.20
2022-08-22T04:39:46.252Z,90.05
2022-08-22T04:40:46.232Z,90.09
2022-08-22T04:41:46.225Z,90.30
2022-08-22T04:42:46.293Z,90.30
2022-08-22T04:43:46.149Z,89.18
2022-08-22T04:44:46.173Z,88.33
2022-08-22T04:45:46.143Z,89.24
2022-08-22T04:46:46.174Z,88.74
2022-08-22T04:47:46.078Z,89.04
2022-08-22T04:48:47.107Z,89.14
2022-08-22T04:49:46.177Z,90.16
2022-08-22T04:50:46.096Z,91.06
2022-08-22T04:51:46.098Z,90.50
2022-08-22T04:52:46.123Z,90.50
2022-08-22T04:53:46.053Z,91.71
2022-08-22T04:54:46.024Z,90.91
2022-08-22T04:55:46.059Z,91.71
2022-08-22T04:56:46.051Z,91.20
2022-08-22T04:57:45.994Z,91.41
2022-08-22T04:58:46.022Z,91.11
2022-08-22T04:59:45.977Z,89.39
2022-08-22T05:00:45.977Z,88.84
2022-08-22T05:01:46.051Z,90.16
2022-08-22T05:02:45.989Z,88.53
2022-08-22T05:03:45.953Z,88.64
2022-08-22T05:04:45.966Z,87.28
2022-08-22T05:05:46.004Z,88.19
2022-08-22T05:06:45.879Z,88.19
2022-08-22T05:07:45.977Z,88.25
2022-08-22T05:08:45.949Z,87.48
2022-08-22T05:09:45.869Z,87.84
2022-08-22T05:10:45.856Z,87.84
2022-08-22T05:11:45.821Z,88.35
2022-08-22T05:12:45.860Z,87.44
2022-08-22T05:13:45.829Z,86.83
2022-08-22T05:14:45.825Z,86.53
2022-08-22T05:15:45.807Z,86.49
2022-08-22T05:16:45.770Z,86.90
2022-08-22T05:17:45.799Z,86.99
2022-08-22T05:18:45.790Z,86.69
2022-08-22T05:19:45.777Z,86.90
2022-08-22T05:20:45.873Z,87.40
2022-08-22T05:21:45.714Z,86.99
2022-08-22T05:22:45.731Z,87.15
2022-08-22T05:23:45.719Z,86.45
2022-08-22T05:24:45.747Z,87.26
2022-08-22T05:25:45.710Z,86.15
2022-08-22T05:26:45.723Z,86.04
2022-08-22T05:27:45.754Z,86.21
2022-08-22T05:28:45.641Z,85.90
2022-08-22T05:29:45.691Z,85.50
2022-08-22T05:30:45.610Z,86.41
2022-08-22T05:31:45.679Z,85.90
2022-08-22T05:32:45.698Z,87.62
2022-08-22T05:33:45.584Z,87.07
2022-08-22T05:34:45.604Z,85.96
2022-08-22T05:35:49.547Z,86.27
2022-08-22T05:36:46.581Z,85.66
2022-08-22T05:37:45.576Z,86.07
2022-08-22T05:38:45.547Z,86.16
2022-08-22T05:39:45.541Z,85.05
2022-08-22T05:40:45.524Z,85.36
2022-08-22T05:41:45.493Z,84.91
2022-08-22T05:42:45.576Z,85.31
2022-08-22T05:43:45.578Z,85.11
2022-08-22T05:44:45.506Z,85.11
2022-08-22T05:45:45.444Z,85.22
2022-08-22T05:46:45.517Z,84.47
2022-08-22T05:47:45.509Z,84.27
2022-08-22T05:48:45.587Z,83.76
2022-08-22T05:49:45.403Z,82.86
2022-08-22T05:50:49.210Z,82.96
2022-08-22T05:51:46.525Z,83.52
2022-08-22T05:52:45.508Z,83.02
2022-08-22T05:53:45.449Z,82.82
2022-08-22T05:54:45.369Z,81.81
2022-08-22T05:55:45.399Z,82.68
2022-08-22T05:56:45.372Z,81.17
2022-08-22T05:57:45.329Z,81.43
2022-08-22T05:58:45.314Z,81.73
2022-08-22T05:59:45.322Z,82.04
2022-08-22T06:00:45.353Z,81.43
2022-08-22T06:01:45.347Z,80.73
2022-08-22T06:02:45.391Z,81.43
2022-08-22T06:03:45.264Z,80.89
2022-08-22T06:04:45.263Z,80.69
2022-08-22T06:05:45.293Z,79.38
2022-08-22T06:06:45.243Z,80.08
2022-08-22T06:07:45.267Z,81.29
2022-08-22T06:08:45.328Z,80.19
2022-08-22T06:09:45.234Z,81.15
2022-08-22T06:10:48.171Z,79.44
2022-08-22T06:11:51.889Z,79.74
2022-08-22T06:12:46.152Z,79.44
2022-08-22T06:13:45.171Z,80.91
2022-08-22T06:14:45.152Z,78.60
2022-08-22T06:15:45.160Z,79.06
2022-08-22T06:16:47.626Z,77.26
2022-08-22T06:17:45.107Z,77.72
2022-08-22T06:18:45.091Z,77.32
2022-08-22T06:19:45.130Z,76.98
2022-08-22T06:20:45.239Z,76.48
2022-08-22T06:21:45.188Z,75.98
2022-08-22T06:22:45.047Z,76.92
2022-08-22T06:23:45.055Z,76.18
2022-08-22T06:24:45.145Z,76.58
2022-08-22T06:25:45.053Z,76.54
2022-08-22T06:26:48.554Z,75.64
2022-08-22T06:27:45.161Z,75.34
2022-08-22T06:28:55.249Z,75.74
2022-08-22T06:29:45.994Z,76.21
2022-08-22T06:30:45.084Z,74.67
2022-08-22T06:31:44.996Z,75.04
2022-08-22T06:32:59.977Z,73.70
2022-08-22T06:33:45.973Z,74.16
2022-08-22T06:34:44.953Z,71.62
2022-08-22T06:35:45.031Z,71.53
2022-08-22T06:36:44.924Z,73.19
2022-08-22T06:37:44.911Z,73.89
2022-08-22T06:38:44.918Z,73.22
2022-08-22T06:39:44.941Z,74.03
2022-08-22T06:40:44.856Z,74.39
2022-08-22T06:41:45.075Z,74.63
2022-08-22T06:42:45.007Z,70.43
2022-08-22T06:43:44.917Z,70.92
2022-08-22T06:44:44.847Z,71.86
2022-08-22T06:45:44.964Z,71.26
2022-08-22T06:46:44.814Z,72.76
2022-08-22T06:47:50.250Z,72.76
2022-08-22T06:48:45.794Z,74.06
2022-08-22T06:49:44.771Z,73.30
2022-08-22T06:50:44.769Z,74.60
2022-08-22T06:51:44.784Z,73.13
2022-08-22T06:52:44.744Z,73.13
2022-08-22T06:53:47.689Z,75.43
2022-08-22T06:54:44.773Z,75.93
2022-08-22T06:55:44.702Z,76.84
2022-08-22T06:56:44.777Z,78.04
2022-08-22T06:57:44.755Z,77.44
2022-08-22T06:58:44.687Z,75.60
2022-08-22T06:59:44.709Z,77.47
2022-08-22T07:00:49.762Z,76.23
2022-08-22T07:01:45.688Z,76.65
2022-08-22T07:02:44.666Z,74.22
2022-08-22T07:03:44.609Z,73.42
2022-08-22T07:04:44.726Z,73.28
2022-08-22T07:05:44.701Z,69.49
2022-08-22T07:06:44.569Z,69.89
2022-08-22T07:07:44.653Z,71.39
2022-08-22T07:08:44.574Z,70.12
2022-08-22T07:09:44.576Z,71.15
2022-08-22T07:10:44.579Z,72.25
2022-08-22T07:11:44.603Z,73.19
2022-08-22T07:12:44.535Z,70.49
2022-08-22T07:13:44.571Z,72.59
2022-08-22T07:14:44.508Z,73.22
2022-08-22T07:15:44.514Z,73.96
2022-08-22T07:16:44.549Z,74.26
2022-08-22T07:17:44.640Z,74.36
2022-08-22T07:18:44.684Z,75.59
2022-08-22T07:19:44.515Z,71.39
2022-08-22T07:20:44.483Z,71.59
2022-08-22T07:21:44.501Z,72.65
2022-08-22T07:22:44.492Z,73.72
2022-08-22T07:23:44.451Z,70.09
2022-08-22T07:24:44.427Z,68.19
2022-08-22T07:25:44.450Z,73.18
2022-08-22T07:26:44.380Z,73.78
2022-08-22T07:27:44.420Z,69.53
2022-08-22T07:28:51.341Z,67.67
2022-08-22T07:29:45.331Z,66.71
2022-08-22T07:30:44.376Z,66.35
2022-08-22T07:31:44.444Z,67.38
2022-08-22T07:32:44.292Z,66.94
2022-08-22T07:33:44.309Z,66.68
2022-08-22T07:34:44.310Z,62.85
2022-08-22T07:35:44.323Z,60.91
2022-08-22T07:36:45.577Z,60.14
2022-08-22T07:37:44.480Z,61.32
2022-08-22T07:38:44.272Z,64.10
2022-08-22T07:39:44.286Z,64.83
2022-08-22T07:40:44.213Z,63.39
2022-08-22T07:41:44.316Z,63.06
2022-08-22T07:42:44.270Z,60.85
2022-08-22T07:43:44.319Z,60.94
2022-08-22T07:44:44.163Z,60.94
2022-08-22T07:45:44.173Z,64.94
2022-08-22T07:46:44.248Z,64.28
2022-08-22T07:47:48.012Z,58.91
2022-08-22T07:49:07.724Z,60.39
2022-08-22T07:49:49.865Z,61.91
2022-08-22T07:50:44.110Z,58.64
2022-08-22T07:51:44.182Z,60.31
2022-08-22T07:52:44.083Z,63.48
2022-08-22T07:53:44.162Z,64.56
2022-08-22T07:54:44.157Z,67.47
2022-08-22T07:55:49.530Z,67.50
2022-08-22T07:56:45.149Z,65.65
2022-08-22T07:57:44.076Z,66.71
2022-08-22T07:58:44.064Z,68.27
2022-08-22T07:59:44.060Z,67.07
2022-08-22T08:00:44.034Z,70.92
2022-08-22T08:01:44.105Z,66.97
2022-08-22T08:02:44.043Z,67.97
2022-08-22T08:03:43.974Z,69.46
2022-08-22T08:04:44.012Z,68.30
2022-08-22T08:05:43.935Z,65.58
2022-08-22T08:06:43.990Z,64.73
2022-08-22T08:07:43.933Z,62.98
2022-08-22T08:08:43.999Z,64.73
2022-08-22T08:09:43.975Z,66.45
2022-08-22T08:10:43.900Z,64.59
2022-08-22T08:11:43.927Z,65.09
2022-08-22T08:12:43.943Z,64.99
2022-08-22T08:13:44.851Z,68.07
2022-08-22T08:14:43.841Z,64.73
2022-08-22T08:15:43.855Z,66.45
2022-08-22T08:16:43.845Z,62.08
2022-08-22T08:17:43.908Z,62.81
2022-08-22T08:18:44.763Z,66.11
2022-08-22T08:19:43.840Z,63.37
2022-08-22T08:20:43.836Z,64.63
2022-08-22T08:21:43.900Z,64.67
2022-08-22T08:22:43.756Z,61.90
2022-08-22T08:23:43.784Z,65.46
2022-08-22T08:24:45.241Z,63.09
2022-08-22T08:25:43.784Z,63.18
2022-08-22T08:26:43.788Z,62.82
2022-08-22T08:27:43.753Z,61.56
2022-08-22T08:28:43.749Z,64.31
2022-08-22T08:29:43.707Z,62.58
2022-08-22T08:30:43.809Z,63.15
2022-08-22T08:31:45.021Z,63.39
2022-08-22T08:32:43.694Z,64.70
2022-08-22T08:33:43.648Z,61.86
2022-08-22T08:34:43.642Z,64.63
2022-08-22T08:36:02.943Z,64.50
2022-08-22T08:36:44.739Z,63.71
2022-08-22T08:37:43.663Z,66.06
2022-08-22T08:38:43.599Z,63.31
2022-08-22T08:39:43.662Z,64.84
2022-08-22T08:40:43.605Z,64.37
2022-08-22T08:41:43.668Z,62.82
2022-08-22T08:42:43.596Z,63.31
2022-08-22T08:43:43.571Z,64.90
2022-08-22T08:44:43.554Z,62.01
2022-08-22T08:45:43.513Z,59.01
2022-08-22T08:46:50.229Z,60.86
2022-08-22T08:47:44.565Z,60.60
2022-08-22T08:48:43.632Z,60.77
2022-08-22T08:49:43.465Z,60.01
2022-08-22T08:50:43.513Z,58.37
2022-08-22T08:51:43.560Z,59.19
2022-08-22T08:52:43.528Z,58.77
2022-08-22T08:53:43.673Z,57.02
2022-08-22T08:54:43.424Z,57.78
2022-08-22T08:55:43.429Z,60.84
2022-08-22T08:56:47.220Z,58.05
2022-08-22T08:57:43.380Z,58.84
2022-08-22T08:58:43.367Z,58.15
2022-08-22T08:59:44.487Z,57.79
2022-08-22T09:00:43.409Z,58.48
2022-08-22T09:01:43.437Z,55.07
2022-08-22T09:02:43.377Z,56.30
2022-08-22T09:03:43.373Z,58.97
2022-08-22T09:04:43.320Z,59.03
2022-08-22T09:05:43.283Z,56.25
2022-08-22T09:06:43.447Z,55.56
2022-08-22T09:07:44.263Z,55.33
2022-08-22T09:08:44.131Z,56.91
2022-08-22T09:09:43.985Z,58.29
2022-08-22T09:10:43.584Z,54.45
2022-08-22T09:11:43.245Z,56.12
2022-08-22T09:12:52.220Z,59.01
2022-08-22T09:13:44.749Z,57.73
2022-08-22T09:14:44.377Z,59.80
2022-08-22T09:15:43.180Z,58.02
2022-08-22T09:16:46.271Z,56.45
2022-08-22T09:17:43.202Z,58.71
2022-08-22T09:18:43.155Z,56.74
2022-08-22T09:19:43.208Z,56.91
2022-08-22T09:20:43.192Z,54.25
2022-08-22T09:21:43.154Z,55.19
2022-08-22T09:22:50.559Z,58.50
2022-08-22T09:23:44.266Z,62.62
2022-08-22T09:24:43.095Z,57.46
2022-08-22T09:25:43.086Z,58.81
2022-08-22T09:26:43.132Z,58.71
2022-08-22T09:27:43.184Z,55.79
2022-08-22T09:28:43.042Z,56.73
2022-08-22T09:29:54.975Z,56.36
2022-08-22T09:30:44.074Z,56.58
2022-08-22T09:31:52.008Z,57.01
2022-08-22T09:32:44.006Z,61.88
2022-08-22T09:33:43.036Z,60.73
2022-08-22T09:34:42.978Z,59.97
2022-08-22T09:35:42.967Z,58.09
2022-08-22T09:36:42.979Z,59.67
2022-08-22T09:37:43.012Z,56.74
2022-08-22T09:38:47.707Z,58.69
2022-08-22T09:39:43.994Z,63.49
2022-08-22T09:40:43.920Z,57.87
2022-08-22T09:41:42.953Z,60.43
2022-08-22T09:42:45.038Z,58.33
2022-08-22T09:43:44.166Z,60.97
2022-08-22T09:44:43.895Z,58.40
2022-08-22T09:45:43.142Z,59.23
2022-08-22T09:46:42.862Z,54.43
2022-08-22T09:47:42.895Z,60.61
2022-08-22T09:48:43.043Z,56.74
2022-08-22T09:49:42.823Z,62.00
2022-08-22T09:50:44.221Z,56.07
2022-08-22T09:51:42.813Z,53.14
2022-08-22T09:52:42.814Z,55.65
2022-08-22T09:53:43.502Z,53.95
2022-08-22T09:54:42.784Z,56.21
2022-08-22T09:55:42.851Z,53.16
2022-08-22T09:56:42.776Z,53.23
2022-08-22T09:57:42.815Z,57.59
2022-08-22T09:58:42.733Z,52.58
2022-08-22T09:59:43.236Z,57.53
2022-08-22T10:00:42.849Z,58.54
2022-08-22T10:01:42.758Z,58.60
2022-08-22T10:02:43.486Z,59.61
2022-08-22T10:03:42.748Z,58.89
2022-08-22T10:04:42.720Z,60.25
2022-08-22T10:05:44.353Z,57.68
2022-08-22T10:06:42.697Z,60.75
2022-08-22T10:07:42.697Z,54.91
2022-08-22T10:08:45.830Z,56.20
2022-08-22T10:09:42.668Z,54.89
2022-08-22T10:10:42.700Z,52.87
2022-08-22T10:11:43.303Z,51.50
2022-08-22T10:12:42.608Z,57.59
2022-08-22T10:13:42.574Z,53.27
2022-08-22T10:14:42.799Z,53.33
2022-08-22T10:15:43.573Z,56.58
2022-08-22T10:16:42.652Z,51.37
2022-08-22T10:17:43.004Z,55.10
2022-08-22T10:18:52.542Z,54.12
2022-08-22T10:19:43.563Z,54.91
2022-08-22T10:20:42.572Z,52.94
2022-08-22T10:21:42.641Z,51.15
2022-08-22T10:22:44.433Z,50.27
2022-08-22T10:23:42.477Z,54.85
2022-08-22T10:24:44.095Z,50.59
2022-08-22T10:25:42.547Z,51.25
2022-08-22T10:26:42.441Z,48.90
2022-08-22T10:27:42.499Z,49.38
2022-08-22T10:28:42.443Z,52.69
2022-08-22T10:29:42.498Z,52.33
2022-08-22T10:30:42.465Z,49.04
2022-08-22T10:31:58.367Z,50.61
2022-08-22T10:32:43.442Z,55.38
2022-08-22T10:33:42.435Z,55.58
2022-08-22T10:34:42.452Z,53.76
2022-08-22T10:35:42.389Z,54.82
2022-08-22T10:36:42.366Z,53.91
2022-08-22T10:37:45.921Z,55.43
2022-08-22T10:38:46.274Z,53.11
2022-08-22T10:39:43.986Z,53.58
2022-08-22T10:40:42.356Z,54.14
2022-08-22T10:41:42.323Z,54.19
2022-08-22T10:42:42.313Z,51.34
2022-08-22T10:43:42.408Z,53.30
2022-08-22T10:44:42.283Z,52.81
2022-08-22T10:45:42.273Z,51.32
2022-08-22T10:46:42.415Z,49.29
2022-08-22T10:47:42.283Z,52.89
2022-08-22T10:48:42.452Z,57.78
2022-08-22T10:49:42.334Z,53.99
2022-08-22T10:50:43.065Z,52.69
2022-08-22T10:51:42.241Z,51.49
2022-08-22T10:52:42.325Z,51.29
2022-08-22T10:53:42.282Z,51.27
2022-08-22T10:54:42.296Z,50.78
2022-08-22T10:55:42.155Z,48.33
2022-08-22T10:56:43.856Z,47.85
2022-08-22T10:57:42.192Z,48.43
2022-08-22T10:58:42.123Z,50.22
2022-08-22T10:59:42.222Z,50.37
2022-08-22T11:00:46.468Z,54.06
2022-08-22T11:01:43.170Z,49.16
2022-08-22T11:02:42.301Z,51.61
2022-08-22T11:03:42.144Z,50.44
2022-08-22T11:04:42.070Z,49.29
2022-08-22T11:05:42.653Z,51.34
2022-08-22T11:06:42.068Z,51.03
2022-08-22T11:07:42.163Z,51.03
2022-08-22T11:08:43.156Z,51.90
2022-08-22T11:09:42.128Z,50.12
2022-08-22T11:10:42.033Z,50.76
2022-08-22T11:11:42.053Z,52.84
2022-08-22T11:12:42.094Z,50.14
2022-08-22T11:13:43.207Z,52.42
2022-08-22T11:14:41.988Z,54.07
2022-08-22T11:15:41.967Z,51.86
2022-08-22T11:16:42.201Z,49.97
2022-08-22T11:17:46.324Z,51.42
2022-08-22T11:18:42.998Z,48.30
2022-08-22T11:19:43.012Z,50.49
2022-08-22T11:20:41.956Z,54.80
2022-08-22T11:21:41.899Z,52.13
2022-08-22T11:22:42.065Z,50.66
2022-08-22T11:23:41.882Z,52.13
2022-08-22T11:24:55.776Z,51.32
2022-08-22T11:25:42.889Z,47.60
2022-08-22T11:26:47.004Z,51.59
2022-08-22T11:27:42.994Z,52.76
2022-08-22T11:28:42.017Z,46.59
2022-08-22T11:29:43.569Z,50.81
2022-08-22T11:30:44.109Z,50.71
2022-08-22T11:31:47.344Z,48.75
2022-08-22T11:32:43.087Z,49.26
2022-08-22T11:33:46.950Z,53.16
2022-08-22T11:34:42.773Z,53.18
2022-08-22T11:35:41.795Z,48.97
2022-08-22T11:36:41.753Z,50.90
2022-08-22T11:37:43.411Z,50.34
2022-08-22T11:38:41.751Z,50.29
2022-08-22T11:39:41.980Z,51.20
2022-08-22T11:40:41.830Z,50.19
2022-08-22T11:41:41.750Z,52.84
2022-08-22T11:42:47.456Z,54.12
2022-08-22T11:43:42.811Z,53.02
2022-08-22T11:44:50.815Z,50.37
2022-08-22T11:45:42.768Z,53.28
2022-08-22T11:46:41.705Z,51.49
2022-08-22T11:47:41.668Z,49.53
2022-08-22T11:48:41.643Z,49.21
2022-08-22T11:49:42.662Z,50.20
2022-08-22T11:50:42.178Z,49.41
2022-08-22T11:51:41.705Z,52.96
2022-08-22T11:52:41.611Z,54.04
2022-08-22T11:53:41.580Z,51.73
2022-08-22T11:54:42.152Z,51.61
2022-08-22T11:55:41.579Z,50.24
2022-08-22T11:56:41.775Z,52.94
2022-08-22T11:57:41.778Z,50.02
2022-08-22T11:58:41.604Z,54.56
2022-08-22T11:59:43.036Z,52.82
2022-08-22T12:00:41.869Z,49.21
2022-08-22T12:01:41.718Z,53.23
2022-08-22T12:02:41.610Z,50.68
2022-08-22T12:03:41.509Z,50.19
2022-08-22T12:04:42.641Z,51.42
2022-08-22T12:05:41.461Z,52.67
2022-08-22T12:06:41.465Z,49.26
2022-08-22T12:07:41.437Z,51.07
2022-08-22T12:08:41.486Z,50.85
2022-08-22T12:09:41.491Z,50.22
2022-08-22T12:10:41.419Z,46.57
2022-08-22T12:11:41.418Z,49.97
2022-08-22T12:12:42.156Z,48.99
2022-08-22T12:13:41.409Z,48.97
2022-08-22T12:14:42.741Z,45.79
2022-08-22T12:15:41.380Z,48.92
2022-08-22T12:16:41.351Z,48.14
2022-08-22T12:17:55.386Z,47.65
2022-08-22T12:18:42.357Z,49.46
2022-08-22T12:19:58.921Z,48.99
2022-08-22T12:20:45.515Z,48.19
2022-08-22T12:21:41.479Z,47.38
2022-08-22T12:22:41.420Z,46.81
2022-08-22T12:23:49.460Z,48.70
2022-08-22T12:24:42.276Z,47.84
2022-08-22T12:25:44.500Z,52.42
2022-08-22T12:26:41.292Z,48.99
2022-08-22T12:27:41.315Z,48.01
2022-08-22T12:28:42.309Z,49.33
2022-08-22T12:29:45.304Z,46.69
2022-08-22T12:30:41.238Z,44.81
2022-08-22T12:31:41.215Z,46.97
2022-08-22T12:32:43.967Z,45.28
2022-08-22T12:33:41.232Z,50.34
2022-08-22T12:34:41.629Z,46.45
2022-08-22T12:35:41.173Z,46.33
2022-08-22T12:36:41.156Z,44.67
2022-08-22T12:37:48.276Z,48.26
2022-08-22T12:38:42.192Z,52.49
2022-08-22T12:39:41.407Z,50.34
2022-08-22T12:40:43.625Z,47.21
2022-08-22T12:41:41.112Z,44.45
2022-08-22T12:42:42.156Z,46.31
2022-08-22T12:43:42.711Z,44.73
2022-08-22T12:44:41.107Z,48.10
2022-08-22T12:45:41.127Z,45.73
2022-08-22T12:46:46.522Z,42.97
2022-08-22T12:47:42.359Z,45.02
2022-08-22T12:48:41.070Z,43.75
2022-08-22T12:49:41.077Z,46.39
2022-08-22T12:50:41.049Z,44.82